createdAt,value
2018-07-23T00:01:41.271Z,99523.00
2018-07-23T00:03:45.687Z,99524.00
2018-07-23T00:05:50.570Z,99520.00
2018-07-23T00:07:55.116Z,99517.00
2018-07-23T00:09:59.714Z,99516.00
2018-07-23T00:12:04.238Z,99512.00
2018-07-23T00:14:08.362Z,99522.00
2018-07-23T00:16:12.890Z,99524.00
2018-07-23T00:18:17.346Z,99522.00
2018-07-23T00:20:21.791Z,99524.00
2018-07-23T00:22:26.261Z,99514.00
2018-07-23T00:24:30.722Z,99516.00
2018-07-23T00:26:35.186Z,99526.00
2018-07-23T00:28:39.744Z,99523.00
2018-07-23T00:30:44.202Z,99516.00
2018-07-23T00:32:48.659Z,99516.00
2018-07-23T00:34:53.093Z,99517.00
2018-07-23T00:36:57.548Z,99512.00
2018-07-23T00:39:01.986Z,99509.00
2018-07-23T00:41:06.422Z,99512.00
2018-07-23T00:43:10.910Z,99510.00
2018-07-23T00:45:15.426Z,99513.00
2018-07-23T00:47:19.992Z,99513.00
2018-07-23T00:49:24.427Z,99519.00
2018-07-23T00:51:28.871Z,99509.00
2018-07-23T00:53:33.016Z,99511.00
2018-07-23T00:55:37.439Z,99508.00
2018-07-23T00:57:41.882Z,99514.00
2018-07-23T00:59:46.345Z,99514.00
2018-07-23T01:01:53.581Z,99512.00
2018-07-23T01:03:59.282Z,99519.00
2018-07-23T01:06:06.939Z,99509.00
2018-07-23T01:08:14.393Z,99514.00
2018-07-23T01:10:23.303Z,99514.00
2018-07-23T01:12:33.871Z,99521.00
2018-07-23T01:14:41.984Z,99518.00
2018-07-23T01:16:49.892Z,99520.00
2018-07-23T01:18:57.945Z,99518.00
2018-07-23T01:21:05.525Z,99523.00
2018-07-23T01:23:11.288Z,99519.00
2018-07-23T01:25:19.195Z,99513.00
2018-07-23T01:27:26.701Z,99521.00
2018-07-23T01:29:35.457Z,99515.00
2018-07-23T01:31:41.353Z,99514.00
2018-07-23T01:33:46.964Z,99517.00
2018-07-23T01:35:51.508Z,99516.00
2018-07-23T01:37:59.051Z,99517.00
2018-07-23T01:40:06.722Z,99515.00
2018-07-23T01:42:14.078Z,99524.00
2018-07-23T01:44:20.580Z,99523.00
2018-07-23T01:46:25.971Z,99520.00
2018-07-23T01:48:32.683Z,99521.00
2018-07-23T01:50:40.162Z,99530.00
2018-07-23T01:52:47.810Z,99520.00
2018-07-23T01:54:54.718Z,99530.00
2018-07-23T01:57:01.040Z,99528.00
2018-07-23T01:59:07.877Z,99533.00
2018-07-23T02:01:13.250Z,99530.00
2018-07-23T02:03:17.730Z,99530.00
2018-07-23T02:05:22.246Z,99525.00
2018-07-23T02:07:26.702Z,99527.00
2018-07-23T02:09:31.177Z,99531.00
2018-07-23T02:11:35.778Z,99534.00
2018-07-23T02:13:40.271Z,99527.00
2018-07-23T02:15:44.737Z,99526.00
2018-07-23T02:17:49.255Z,99531.00
2018-07-23T02:19:53.778Z,99538.00
2018-07-23T02:21:58.235Z,99537.00
2018-07-23T02:24:02.914Z,99542.00
2018-07-23T02:26:07.464Z,99535.00
2018-07-23T02:28:13.899Z,99537.00
2018-07-23T02:30:18.418Z,99530.00
2018-07-23T02:32:22.896Z,99535.00
2018-07-23T02:34:27.338Z,99534.00
2018-07-23T02:36:31.854Z,99544.00
2018-07-23T02:38:36.310Z,99540.00
2018-07-23T02:40:40.826Z,99537.00
2018-07-23T02:42:46.006Z,99535.00
2018-07-23T02:44:50.468Z,99539.00
2018-07-23T02:46:54.970Z,99532.00
2018-07-23T02:48:59.443Z,99543.00
2018-07-23T02:51:03.923Z,99542.00
2018-07-23T02:53:08.410Z,99538.00
2018-07-23T02:55:12.854Z,99541.00
2018-07-23T02:57:17.449Z,99540.00
2018-07-23T02:59:22.122Z,99542.00
2018-07-23T03:01:27.423Z,99532.00
2018-07-23T03:03:34.642Z,99545.00
2018-07-23T03:05:39.291Z,99540.00
2018-07-23T03:07:43.738Z,99536.00
2018-07-23T03:09:48.910Z,99538.00
2018-07-23T03:11:53.355Z,99548.00
2018-07-23T03:13:57.816Z,99544.00
2018-07-23T03:16:02.292Z,99553.00
2018-07-23T03:18:09.840Z,99554.00
2018-07-23T03:20:15.455Z,99566.00
2018-07-23T03:22:20.996Z,99555.00
2018-07-23T03:24:27.272Z,99555.00
2018-07-23T03:26:31.872Z,99555.00
2018-07-23T03:28:36.321Z,99562.00
2018-07-23T03:30:40.768Z,99569.00
2018-07-23T03:32:45.190Z,99566.00
2018-07-23T03:34:49.350Z,99573.00
2018-07-23T03:36:53.851Z,99571.00
2018-07-23T03:38:58.340Z,99565.00
2018-07-23T03:41:04.475Z,99567.00
2018-07-23T03:43:08.930Z,99565.00
2018-07-23T03:45:13.522Z,99566.00
2018-07-23T03:47:18.028Z,99571.00
2018-07-23T03:49:22.475Z,99574.00
2018-07-23T03:51:26.922Z,99568.00
2018-07-23T03:53:31.501Z,99568.00
2018-07-23T03:55:35.937Z,99564.00
2018-07-23T03:57:40.029Z,99565.00
2018-07-23T03:59:48.725Z,99564.00
2018-07-23T04:01:55.037Z,99576.00
2018-07-23T04:04:01.744Z,99584.00
2018-07-23T04:06:08.115Z,99583.00
2018-07-23T04:08:14.368Z,99578.00
2018-07-23T04:10:21.854Z,99581.00
2018-07-23T04:12:28.542Z,99591.00
2018-07-23T04:14:34.778Z,99585.00
2018-07-23T04:16:41.954Z,99591.00
2018-07-23T04:18:49.255Z,99579.00
2018-07-23T04:20:55.849Z,99596.00
2018-07-23T04:23:02.229Z,99588.00
2018-07-23T04:25:10.481Z,99578.00
2018-07-23T04:27:19.459Z,99583.00
2018-07-23T04:29:27.083Z,99587.00
2018-07-23T04:31:34.551Z,99591.00
2018-07-23T04:33:41.323Z,99586.00
2018-07-23T04:35:46.682Z,99588.00
2018-07-23T04:37:55.075Z,99597.00
2018-07-23T04:39:59.527Z,99597.00
2018-07-23T04:42:03.955Z,99588.00
2018-07-23T04:44:08.471Z,99594.00
2018-07-23T04:46:12.889Z,99597.00
2018-07-23T04:48:17.302Z,99594.00
2018-07-23T04:50:21.433Z,99589.00
2018-07-23T04:52:25.537Z,99584.00
2018-07-23T04:54:29.989Z,99594.00
2018-07-23T04:56:34.492Z,99586.00
2018-07-23T04:58:38.942Z,99590.00
2018-07-23T05:00:43.425Z,99585.00
2018-07-23T05:02:47.861Z,99590.00
2018-07-23T05:04:52.005Z,99595.00
2018-07-23T05:06:56.430Z,99597.00
2018-07-23T05:09:00.883Z,99592.00
2018-07-23T05:11:05.345Z,99587.00
2018-07-23T05:13:09.766Z,99585.00
2018-07-23T05:15:14.219Z,99591.00
2018-07-23T05:17:18.656Z,99587.00
2018-07-23T05:19:23.155Z,99598.00
2018-07-23T05:21:27.581Z,99592.00
2018-07-23T05:23:32.610Z,99592.00
2018-07-23T05:25:37.290Z,99592.00
2018-07-23T05:27:41.730Z,99602.00
2018-07-23T05:29:46.167Z,99593.00
2018-07-23T05:31:50.646Z,99604.00
2018-07-23T05:33:55.092Z,99589.00
2018-07-23T05:35:59.766Z,99594.00
2018-07-23T05:38:03.883Z,99599.00
2018-07-23T05:40:08.807Z,99591.00
2018-07-23T05:42:13.338Z,99593.00
2018-07-23T05:44:17.820Z,99594.00
2018-07-23T05:46:22.325Z,99605.00
2018-07-23T05:48:26.726Z,99601.00
2018-07-23T05:50:31.297Z,99602.00
2018-07-23T05:52:35.978Z,99606.00
2018-07-23T05:54:40.098Z,99605.00
2018-07-23T05:56:44.534Z,99596.00
2018-07-23T05:58:49.029Z,99601.00
2018-07-23T06:00:53.691Z,99596.00
2018-07-23T06:02:58.440Z,99588.00
2018-07-23T06:05:02.948Z,99589.00
2018-07-23T06:07:07.570Z,99590.00
2018-07-23T06:09:12.120Z,99602.00
2018-07-23T06:11:16.713Z,99598.00
2018-07-23T06:13:21.237Z,99592.00
2018-07-23T06:15:25.717Z,99592.00
2018-07-23T06:17:30.180Z,99595.00
2018-07-23T06:19:34.682Z,99592.00
2018-07-23T06:21:39.122Z,99593.00
2018-07-23T06:23:43.579Z,99592.00
2018-07-23T06:25:48.071Z,99602.00
2018-07-23T06:27:52.517Z,99591.00
2018-07-23T06:29:57.085Z,99590.00
2018-07-23T06:32:01.250Z,99595.00
2018-07-23T06:34:05.741Z,99600.00
2018-07-23T06:36:10.192Z,99597.00
2018-07-23T06:38:14.630Z,99595.00
2018-07-23T06:40:19.112Z,99604.00
2018-07-23T06:42:23.638Z,99601.00
2018-07-23T06:44:28.145Z,99601.00
2018-07-23T06:46:32.336Z,99596.00
2018-07-23T06:48:37.654Z,99597.00
2018-07-23T06:50:42.207Z,99600.00
2018-07-23T06:52:46.636Z,99605.00
2018-07-23T06:54:51.282Z,99605.00
2018-07-23T06:56:55.736Z,99600.00
2018-07-23T06:59:00.249Z,99601.00
2018-07-23T07:01:04.710Z,99601.00
2018-07-23T07:03:09.385Z,99599.00
2018-07-23T07:05:13.822Z,99598.00
2018-07-23T07:07:18.322Z,99599.00
2018-07-23T07:09:22.843Z,99596.00
2018-07-23T07:11:27.438Z,99599.00
2018-07-23T07:13:33.132Z,99593.00
2018-07-23T07:15:37.575Z,99603.00
2018-07-23T07:17:42.763Z,99598.00
2018-07-23T07:19:47.223Z,99594.00
2018-07-23T07:21:51.678Z,99591.00
2018-07-23T07:26:08.352Z,99600.00
2018-07-23T07:28:12.849Z,99590.00
2018-07-23T07:30:17.338Z,99594.00
2018-07-23T07:32:21.868Z,99596.00
2018-07-23T07:34:26.411Z,99602.00
2018-07-23T07:36:30.985Z,99594.00
2018-07-23T07:38:35.423Z,99594.00
2018-07-23T07:40:40.564Z,99598.00
2018-07-23T07:42:45.027Z,99595.00
2018-07-23T07:44:49.485Z,99605.00
2018-07-23T07:46:53.907Z,99601.00
2018-07-23T07:48:58.351Z,99597.00
2018-07-23T07:51:02.903Z,99593.00
2018-07-23T07:53:07.374Z,99603.00
2018-07-23T07:55:13.848Z,99603.00
2018-07-23T07:57:18.351Z,99599.00
2018-07-23T07:59:23.311Z,99598.00
2018-07-23T08:01:28.066Z,99588.00
2018-07-23T08:03:32.519Z,99590.00
2018-07-23T08:05:37.006Z,99591.00
2018-07-23T08:07:41.593Z,99585.00
2018-07-23T08:09:46.050Z,99596.00
2018-07-23T08:11:50.541Z,99591.00
2018-07-23T08:13:54.977Z,99594.00
2018-07-23T08:15:59.492Z,99589.00
2018-07-23T08:18:03.999Z,99603.00
2018-07-23T08:20:08.533Z,99602.00
2018-07-23T08:22:13.161Z,99597.00
2018-07-23T08:24:17.619Z,99598.00
2018-07-23T08:26:22.175Z,99602.00
2018-07-23T08:28:26.604Z,99597.00
2018-07-23T08:30:31.099Z,99596.00
2018-07-23T08:32:35.539Z,99592.00
2018-07-23T08:34:39.971Z,99603.00
2018-07-23T08:36:44.456Z,99594.00
2018-07-23T08:38:48.941Z,99608.00
2018-07-23T08:40:53.414Z,99611.00
2018-07-23T08:42:57.893Z,99611.00
2018-07-23T08:45:02.299Z,99605.00
2018-07-23T08:47:08.018Z,99608.00
2018-07-23T08:49:12.847Z,99603.00
2018-07-23T08:51:17.381Z,99605.00
2018-07-23T08:53:21.963Z,99606.00
2018-07-23T08:55:26.642Z,99612.00
2018-07-23T08:57:31.187Z,99613.00
2018-07-23T08:59:35.697Z,99617.00
2018-07-23T09:01:40.199Z,99623.00
2018-07-23T09:03:44.756Z,99623.00
2018-07-23T09:05:49.251Z,99617.00
2018-07-23T09:07:53.715Z,99620.00
2018-07-23T09:09:58.143Z,99616.00
2018-07-23T09:12:02.809Z,99623.00
2018-07-23T09:14:08.083Z,99623.00
2018-07-23T09:16:12.613Z,99622.00
2018-07-23T09:18:17.106Z,99627.00
2018-07-23T09:20:21.624Z,99624.00
2018-07-23T09:22:31.305Z,99629.00
2018-07-23T09:24:38.242Z,99628.00
2018-07-23T09:26:42.384Z,99618.00
2018-07-23T09:28:46.890Z,99617.00
2018-07-23T09:30:55.601Z,99620.00
2018-07-23T09:33:00.048Z,99620.00
2018-07-23T09:35:04.551Z,99633.00
2018-07-23T09:37:09.071Z,99633.00
2018-07-23T09:39:13.544Z,99624.00
2018-07-23T09:41:18.022Z,99623.00
2018-07-23T09:43:22.609Z,99632.00
2018-07-23T09:45:27.089Z,99624.00
2018-07-23T09:47:31.539Z,99624.00
2018-07-23T09:49:36.091Z,99628.00
2018-07-23T09:51:40.252Z,99628.00
2018-07-23T09:53:44.687Z,99625.00
2018-07-23T09:55:49.177Z,99620.00
2018-07-23T09:57:54.325Z,99629.00
2018-07-23T09:59:58.934Z,99621.00
2018-07-23T10:02:03.573Z,99629.00
2018-07-23T10:04:08.127Z,99628.00
2018-07-23T10:06:12.601Z,99633.00
2018-07-23T10:08:17.032Z,99625.00
2018-07-23T10:10:21.893Z,99626.00
2018-07-23T10:12:26.418Z,99623.00
2018-07-23T10:14:30.852Z,99620.00
2018-07-23T10:16:35.320Z,99627.00
2018-07-23T10:18:39.838Z,99619.00
2018-07-23T10:20:44.259Z,99620.00
2018-07-23T10:22:48.737Z,99621.00
2018-07-23T10:24:53.143Z,99617.00
2018-07-23T10:26:57.726Z,99611.00
2018-07-23T10:29:02.226Z,99623.00
2018-07-23T10:31:06.740Z,99618.00
2018-07-23T10:33:11.208Z,99628.00
2018-07-23T10:35:15.792Z,99621.00
2018-07-23T10:37:20.193Z,99622.00
2018-07-23T10:39:24.736Z,99625.00
2018-07-23T10:41:29.182Z,99615.00
2018-07-23T10:43:33.619Z,99614.00
2018-07-23T10:45:38.063Z,99623.00
2018-07-23T10:47:42.221Z,99622.00
2018-07-23T10:49:46.705Z,99634.00
2018-07-23T10:51:51.450Z,99622.00
2018-07-23T10:53:55.935Z,99613.00
2018-07-23T10:56:00.387Z,99614.00
2018-07-23T10:58:05.122Z,99612.00
2018-07-23T11:00:09.648Z,99605.00
2018-07-23T11:02:14.183Z,99613.00
2018-07-23T11:04:18.641Z,99617.00
2018-07-23T11:06:23.222Z,99608.00
2018-07-23T11:08:27.662Z,99613.00
2018-07-23T11:10:32.082Z,99614.00
2018-07-23T11:12:36.797Z,99607.00
2018-07-23T11:14:41.238Z,99605.00
2018-07-23T11:16:45.663Z,99607.00
2018-07-23T11:18:50.178Z,99600.00
2018-07-23T11:20:54.777Z,99608.00
2018-07-23T11:22:59.390Z,99612.00
2018-07-23T11:25:38.323Z,99608.00
2018-07-23T11:27:08.643Z,99609.00
2018-07-23T11:29:13.406Z,99608.00
2018-07-23T11:31:17.909Z,99609.00
2018-07-23T11:33:22.537Z,99607.00
2018-07-23T11:35:27.575Z,99609.00
2018-07-23T11:37:32.402Z,99602.00
2018-07-23T11:39:37.311Z,99610.00
2018-07-23T11:41:42.214Z,99603.00
2018-07-23T11:43:47.122Z,99600.00
2018-07-23T11:45:51.802Z,99610.00
2018-07-23T11:47:56.282Z,99616.00
2018-07-23T11:50:00.721Z,99621.00
2018-07-23T11:52:05.182Z,99611.00
2018-07-23T11:54:09.706Z,99615.00
2018-07-23T11:56:14.187Z,99609.00
2018-07-23T11:58:18.728Z,99609.00
2018-07-23T12:00:23.194Z,99602.00
2018-07-23T12:02:27.711Z,99605.00
2018-07-23T12:04:32.226Z,99609.00
2018-07-23T12:06:37.163Z,99618.00
2018-07-23T12:08:41.687Z,99599.00
2018-07-23T12:10:46.111Z,99615.00
2018-07-23T12:12:50.586Z,99608.00
2018-07-23T12:14:55.127Z,99601.00
2018-07-23T12:16:59.671Z,99609.00
2018-07-23T12:19:04.810Z,99601.00
2018-07-23T12:21:09.234Z,99599.00
2018-07-23T12:23:13.492Z,99594.00
2018-07-23T12:27:25.632Z,99598.00
2018-07-23T12:29:30.178Z,99595.00
2018-07-23T12:31:35.624Z,99600.00
2018-07-23T12:33:40.163Z,99590.00
2018-07-23T12:35:44.925Z,99605.00
2018-07-23T12:37:50.060Z,99601.00
2018-07-23T12:39:54.624Z,99597.00
2018-07-23T12:41:59.365Z,99600.00
2018-07-23T12:44:04.077Z,99600.00
2018-07-23T12:46:08.559Z,99592.00
2018-07-23T12:48:13.050Z,99604.00
2018-07-23T12:50:17.280Z,99598.00
2018-07-23T12:52:21.852Z,99608.00
2018-07-23T12:54:26.674Z,99605.00
2018-07-23T12:56:31.202Z,99601.00
2018-07-23T12:58:35.689Z,99605.00
2018-07-23T13:00:40.135Z,99602.00
2018-07-23T13:02:44.591Z,99595.00
2018-07-23T13:04:49.071Z,99593.00
2018-07-23T13:06:53.554Z,99604.00
2018-07-23T13:08:58.099Z,99602.00
2018-07-23T13:11:02.708Z,99599.00
2018-07-23T13:13:07.319Z,99597.00
2018-07-23T13:15:11.878Z,99592.00
2018-07-23T13:17:16.433Z,99590.00
2018-07-23T13:19:20.939Z,99594.00
2018-07-23T13:21:25.073Z,99599.00
2018-07-23T13:23:29.548Z,99597.00
2018-07-23T13:25:33.993Z,99593.00
2018-07-23T13:27:38.443Z,99593.00
2018-07-23T13:29:42.914Z,99603.00
2018-07-23T13:31:47.223Z,99593.00
2018-07-23T13:33:51.727Z,99589.00
2018-07-23T13:35:56.259Z,99588.00
2018-07-23T13:38:00.800Z,99592.00
2018-07-23T13:40:05.300Z,99589.00
2018-07-23T13:42:09.763Z,99586.00
2018-07-23T13:44:14.236Z,99586.00
2018-07-23T13:46:18.805Z,99585.00
2018-07-23T13:48:23.237Z,99587.00
2018-07-23T13:50:27.724Z,99583.00
2018-07-23T13:52:32.174Z,99576.00
2018-07-23T13:54:36.691Z,99581.00
2018-07-23T13:56:41.235Z,99574.00
2018-07-23T13:58:45.695Z,99579.00
2018-07-23T14:00:50.135Z,99573.00
2018-07-23T14:02:54.626Z,99574.00
2018-07-23T14:04:59.224Z,99574.00
2018-07-23T14:07:03.886Z,99575.00
2018-07-23T14:09:11.645Z,99579.00
2018-07-23T14:11:16.771Z,99563.00
2018-07-23T14:13:22.591Z,99566.00
2018-07-23T14:15:27.669Z,99568.00
2018-07-23T14:17:32.262Z,99564.00
2018-07-23T14:19:36.789Z,99567.00
2018-07-23T14:21:41.798Z,99568.00
2018-07-23T14:23:46.315Z,99562.00
2018-07-23T14:25:50.750Z,99570.00
2018-07-23T14:27:55.268Z,99562.00
2018-07-23T14:29:59.730Z,99569.00
2018-07-23T14:32:04.259Z,99553.00
2018-07-23T14:34:08.754Z,99564.00
2018-07-23T14:36:13.294Z,99556.00
2018-07-23T14:38:17.581Z,99561.00
2018-07-23T14:40:22.143Z,99569.00
2018-07-23T14:42:28.000Z,99556.00
2018-07-23T14:44:34.135Z,99561.00
2018-07-23T14:46:39.487Z,99560.00
2018-07-23T14:48:43.939Z,99561.00
2018-07-23T14:50:48.872Z,99555.00
2018-07-23T14:52:53.316Z,99554.00
2018-07-23T14:54:57.806Z,99555.00
2018-07-23T14:57:02.299Z,99550.00
2018-07-23T14:59:06.791Z,99553.00
2018-07-23T15:01:11.417Z,99548.00
2018-07-23T15:03:15.863Z,99544.00
2018-07-23T15:05:21.216Z,99551.00
2018-07-23T15:07:25.956Z,99548.00
2018-07-23T15:09:30.428Z,99549.00
2018-07-23T15:11:34.968Z,99540.00
2018-07-23T15:13:39.623Z,99542.00
2018-07-23T15:15:45.576Z,99540.00
2018-07-23T15:17:50.393Z,99541.00
2018-07-23T15:19:54.842Z,99543.00
2018-07-23T15:21:59.381Z,99543.00
2018-07-23T15:24:03.879Z,99548.00
2018-07-23T15:26:08.364Z,99556.00
2018-07-23T15:28:12.801Z,99543.00
2018-07-23T15:30:17.277Z,99547.00
2018-07-23T15:32:21.691Z,99547.00
2018-07-23T15:34:27.115Z,99545.00
2018-07-23T15:36:31.635Z,99548.00
2018-07-23T15:38:36.224Z,99545.00
2018-07-23T15:40:40.736Z,99539.00
2018-07-23T15:42:45.195Z,99543.00
2018-07-23T15:44:50.203Z,99539.00
2018-07-23T15:46:54.440Z,99544.00
2018-07-23T15:48:58.914Z,99550.00
2018-07-23T15:51:03.419Z,99544.00
2018-07-23T15:53:07.850Z,99544.00
2018-07-23T15:55:12.329Z,99538.00
2018-07-23T15:57:16.881Z,99538.00
2018-07-23T15:59:21.315Z,99538.00
2018-07-23T16:01:25.481Z,99542.00
2018-07-23T16:03:29.970Z,99544.00
2018-07-23T16:05:34.540Z,99543.00
2018-07-23T16:07:39.053Z,99546.00
2018-07-23T16:09:43.619Z,99542.00
2018-07-23T16:11:48.090Z,99544.00
2018-07-23T16:13:52.526Z,99539.00
2018-07-23T16:15:57.043Z,99540.00
2018-07-23T16:18:01.499Z,99539.00
2018-07-23T16:20:07.119Z,99527.00
2018-07-23T16:22:11.233Z,99526.00
2018-07-23T16:24:15.697Z,99526.00
2018-07-23T16:26:20.136Z,99526.00
2018-07-23T16:28:24.598Z,99533.00
2018-07-23T16:30:29.054Z,99528.00
2018-07-23T16:32:33.890Z,99533.00
2018-07-23T16:34:38.322Z,99536.00
2018-07-23T16:36:42.813Z,99539.00
2018-07-23T16:38:47.267Z,99532.00
2018-07-23T16:40:51.743Z,99532.00
2018-07-23T16:42:56.183Z,99534.00
2018-07-23T16:45:00.627Z,99532.00
2018-07-23T16:47:05.584Z,99521.00
2018-07-23T16:49:10.059Z,99528.00
2018-07-23T16:51:15.106Z,99536.00
2018-07-23T16:53:19.546Z,99533.00
2018-07-23T16:55:25.921Z,99530.00
2018-07-23T16:57:32.238Z,99528.00
2018-07-23T16:59:36.845Z,99536.00
2018-07-23T17:01:41.333Z,99525.00
2018-07-23T17:03:45.770Z,99529.00
2018-07-23T17:05:50.206Z,99526.00
2018-07-23T17:07:54.619Z,99520.00
2018-07-23T17:09:59.098Z,99516.00
2018-07-23T17:12:03.587Z,99524.00
2018-07-23T17:14:08.298Z,99515.00
2018-07-23T17:16:12.789Z,99516.00
2018-07-23T17:18:17.224Z,99521.00
2018-07-23T17:20:21.645Z,99519.00
2018-07-23T17:22:26.078Z,99518.00
2018-07-23T17:24:31.202Z,99519.00
2018-07-23T17:26:35.678Z,99515.00
2018-07-23T17:28:40.092Z,99524.00
2018-07-23T17:30:44.605Z,99525.00
2018-07-23T17:32:49.183Z,99523.00
2018-07-23T17:34:53.614Z,99518.00
2018-07-23T17:36:58.106Z,99521.00
2018-07-23T17:39:02.555Z,99516.00
2018-07-23T17:41:07.347Z,99525.00
2018-07-23T17:43:11.823Z,99521.00
2018-07-23T17:45:16.303Z,99518.00
2018-07-23T17:47:20.802Z,99516.00
2018-07-23T17:49:25.366Z,99524.00
2018-07-23T17:51:29.855Z,99527.00
2018-07-23T17:53:34.291Z,99515.00
2018-07-23T17:55:38.737Z,99524.00
2018-07-23T17:57:43.218Z,99516.00
2018-07-23T17:59:47.667Z,99519.00
2018-07-23T18:01:52.162Z,99516.00
2018-07-23T18:03:56.610Z,99513.00
2018-07-23T18:06:04.478Z,99524.00
2018-07-23T18:08:09.201Z,99527.00
2018-07-23T18:10:13.697Z,99525.00
2018-07-23T18:12:18.194Z,99518.00
2018-07-23T18:14:22.863Z,99519.00
2018-07-23T18:16:27.329Z,99522.00
2018-07-23T18:18:31.738Z,99524.00
2018-07-23T18:20:36.262Z,99523.00
2018-07-23T18:22:41.606Z,99519.00
2018-07-23T18:24:46.810Z,99521.00
2018-07-23T18:26:56.592Z,99521.00
2018-07-23T18:29:01.214Z,99526.00
2018-07-23T18:31:05.781Z,99525.00
2018-07-23T18:33:10.291Z,99517.00
2018-07-23T18:35:14.818Z,99516.00
2018-07-23T18:37:19.358Z,99519.00
2018-07-23T18:39:23.846Z,99516.00
2018-07-23T18:41:28.310Z,99520.00
2018-07-23T18:43:32.781Z,99524.00
2018-07-23T18:45:37.574Z,99519.00
2018-07-23T18:47:42.148Z,99520.00
2018-07-23T18:49:57.483Z,99520.00
2018-07-23T18:52:02.052Z,99514.00
2018-07-23T18:54:06.923Z,99509.00
2018-07-23T18:56:11.647Z,99518.00
2018-07-23T18:58:16.406Z,99515.00
2018-07-23T19:00:20.879Z,99517.00
2018-07-23T19:02:25.406Z,99516.00
2018-07-23T19:04:29.914Z,99519.00
2018-07-23T19:06:34.434Z,99521.00
2018-07-23T19:08:38.950Z,99512.00
2018-07-23T19:10:43.241Z,99520.00
2018-07-23T19:12:47.760Z,99511.00
2018-07-23T19:14:52.194Z,99510.00
2018-07-23T19:16:57.658Z,99521.00
2018-07-23T19:19:03.187Z,99518.00
2018-07-23T19:21:08.274Z,99521.00
2018-07-23T19:23:13.046Z,99530.00
2018-07-23T19:25:18.082Z,99534.00
2018-07-23T19:27:22.736Z,99532.00
2018-07-23T19:32:07.623Z,99538.00
2018-07-23T19:34:12.105Z,99545.00
2018-07-23T19:36:18.267Z,99548.00
2018-07-23T19:38:24.346Z,99545.00
2018-07-23T19:40:28.789Z,99551.00
2018-07-23T19:42:33.211Z,99553.00
2018-07-23T19:44:37.659Z,99547.00
2018-07-23T19:46:42.315Z,99547.00
2018-07-23T19:48:46.464Z,99548.00
2018-07-23T19:50:51.471Z,99551.00
2018-07-23T19:52:55.987Z,99552.00
2018-07-23T19:55:01.150Z,99550.00
2018-07-23T19:57:05.813Z,99555.00
2018-07-23T19:59:10.298Z,99550.00
2018-07-23T20:01:14.737Z,99551.00
2018-07-23T20:03:21.054Z,99557.00
2018-07-23T20:05:25.463Z,99550.00
2018-07-23T20:07:29.936Z,99555.00
2018-07-23T20:09:34.352Z,99556.00
2018-07-23T20:11:39.968Z,99562.00
2018-07-23T20:13:44.622Z,99554.00
2018-07-23T20:15:49.680Z,99553.00
2018-07-23T20:17:54.376Z,99552.00
2018-07-23T20:19:58.810Z,99555.00
2018-07-23T20:22:03.483Z,99565.00
2018-07-23T20:24:08.182Z,99552.00
2018-07-23T20:26:12.775Z,99552.00
2018-07-23T20:28:18.010Z,99549.00
2018-07-23T20:30:22.843Z,99553.00
2018-07-23T20:32:27.270Z,99552.00
2018-07-23T20:34:31.834Z,99563.00
2018-07-23T20:36:36.174Z,99565.00
2018-07-23T20:38:40.675Z,99553.00
2018-07-23T20:40:45.148Z,99550.00
2018-07-23T20:42:49.853Z,99552.00
2018-07-23T20:44:54.722Z,99549.00
2018-07-23T20:46:59.374Z,99566.00
2018-07-23T20:49:04.067Z,99563.00
2018-07-23T20:51:08.746Z,99561.00
2018-07-23T20:53:13.550Z,99554.00
2018-07-23T20:55:18.282Z,99555.00
2018-07-23T20:57:23.234Z,99564.00
2018-07-23T20:59:27.743Z,99561.00
2018-07-23T21:01:32.876Z,99554.00
2018-07-23T21:03:37.343Z,99555.00
2018-07-23T21:05:42.084Z,99554.00
2018-07-23T21:07:46.205Z,99550.00
2018-07-23T21:09:50.861Z,99548.00
2018-07-23T21:11:56.338Z,99549.00
2018-07-23T21:14:03.730Z,99553.00
2018-07-23T21:16:12.006Z,99555.00
2018-07-23T21:18:20.556Z,99545.00
2018-07-23T21:20:25.246Z,99561.00
2018-07-23T21:22:30.083Z,99560.00
2018-07-23T21:24:34.579Z,99556.00
2018-07-23T21:26:39.510Z,99563.00
2018-07-23T21:28:43.922Z,99566.00
2018-07-23T21:30:48.433Z,99564.00
2018-07-23T21:32:53.974Z,99566.00
2018-07-23T21:34:58.718Z,99571.00
2018-07-23T21:37:03.150Z,99570.00
2018-07-23T21:39:09.790Z,99568.00
2018-07-23T21:41:15.375Z,99573.00
2018-07-23T21:43:19.834Z,99570.00
2018-07-23T21:45:24.310Z,99577.00
2018-07-23T21:47:28.427Z,99573.00
2018-07-23T21:49:32.888Z,99570.00
2018-07-23T21:51:37.294Z,99563.00
2018-07-23T21:53:41.759Z,99570.00
2018-07-23T21:55:47.013Z,99573.00
2018-07-23T21:57:51.438Z,99576.00
2018-07-23T21:59:55.698Z,99571.00
2018-07-23T22:02:00.181Z,99575.00
2018-07-23T22:04:04.651Z,99574.00
2018-07-23T22:06:09.107Z,99577.00
2018-07-23T22:08:13.522Z,99570.00
2018-07-23T22:10:17.963Z,99565.00
2018-07-23T22:12:22.458Z,99581.00
2018-07-23T22:14:26.888Z,99579.00
2018-07-23T22:16:31.347Z,99571.00
2018-07-23T22:18:35.768Z,99571.00
2018-07-23T22:20:40.215Z,99573.00
2018-07-23T22:22:44.738Z,99570.00
2018-07-23T22:24:51.391Z,99574.00
2018-07-23T22:26:56.806Z,99571.00
2018-07-23T22:29:01.335Z,99578.00
2018-07-23T22:31:06.059Z,99576.00
2018-07-23T22:33:10.469Z,99576.00
2018-07-23T22:35:14.925Z,99575.00
2018-07-23T22:37:19.634Z,99572.00
2018-07-23T22:39:23.763Z,99570.00
2018-07-23T22:41:28.242Z,99571.00
2018-07-23T22:43:32.681Z,99567.00
2018-07-23T22:45:37.163Z,99574.00
2018-07-23T22:47:41.583Z,99570.00
2018-07-23T22:49:46.006Z,99573.00
2018-07-23T22:51:50.449Z,99574.00
2018-07-23T22:53:54.894Z,99566.00
2018-07-23T22:55:59.478Z,99567.00
2018-07-23T22:58:03.902Z,99571.00
2018-07-23T23:00:08.443Z,99567.00
2018-07-23T23:02:12.874Z,99571.00
2018-07-23T23:04:17.413Z,99569.00
2018-07-23T23:06:21.689Z,99566.00
2018-07-23T23:08:28.871Z,99562.00
2018-07-23T23:10:33.466Z,99568.00
2018-07-23T23:12:37.987Z,99570.00
2018-07-23T23:14:42.405Z,99563.00
2018-07-23T23:16:46.838Z,99556.00
2018-07-23T23:18:51.279Z,99563.00
2018-07-23T23:20:55.766Z,99568.00
2018-07-23T23:23:00.238Z,99555.00
2018-07-23T23:25:04.863Z,99562.00
2018-07-23T23:27:09.008Z,99552.00
2018-07-23T23:29:13.410Z,99546.00
2018-07-23T23:31:17.871Z,99547.00
2018-07-23T23:33:22.282Z,99550.00
2018-07-23T23:35:26.738Z,99561.00
2018-07-23T23:37:31.139Z,99548.00
2018-07-23T23:39:35.659Z,99547.00
2018-07-23T23:41:40.266Z,99544.00
2018-07-23T23:43:44.691Z,99538.00
2018-07-23T23:45:49.156Z,99548.00
2018-07-23T23:47:53.569Z,99552.00
2018-07-23T23:49:58.006Z,99548.00
2018-07-23T23:52:02.157Z,99542.00
2018-07-23T23:54:06.629Z,99553.00
2018-07-23T23:56:11.085Z,99546.00
2018-07-23T23:58:15.562Z,99552.00
